KCKB/CKB METAR and TAF weather

Enter ICAO airport designator
Station Type Date Time Source
KCKB METAR 2021/03/06 01:53 UTC NOAA

KCKB 060153Z 31004KT 10SM CLR 00/M11 A3016 RMK AO2 SLP223 T00001106


Station Type Date Time Source
KCKB Decoded METAR 2021/03/06 01:53 UTC NOAA

HARRISON/MARION REGIONAL, WV, United States (KCKB) 39-18N 080-13W 360M
Mar 05, 2021 - 08:53 PM EST / 2021.03.06 0153 UTC
Wind: from the NW (310 degrees) at 5 MPH (4 KT):0
Visibility: 10 mile(s):0
Sky conditions: clear
Temperature: 32.0 F (0.0 C)
Windchill: 26 F (-3 C):1
Dew Point: 12.9 F (-10.6 C)
Relative Humidity: 44%
Pressure (altimeter): 30.16 in. Hg (1021 hPa)
ob: KCKB 060153Z 31004KT 10SM CLR 00/M11 A3016 RMK AO2 SLP223 T00001106
cycle: 2

Station Type Date Time Source
KCKB TAF 2021/03/05 21:06 UTC NOAA

TAF
AMD KCKB 052105Z 0521/0618 30007G17KT P6SM SCT060
FM052300 29010G16KT P6SM SKC
FM060000 29007KT P6SM SKC

Example: see airport list